createdAt,value
2018-09-24T00:01:09.621Z,81.10
2018-09-24T00:03:38.801Z,80.30
2018-09-24T00:06:08.182Z,80.50
2018-09-24T00:08:37.345Z,79.40
2018-09-24T00:11:06.908Z,79.50
2018-09-24T00:13:42.638Z,79.80
2018-09-24T00:16:11.822Z,80.50
2018-09-24T00:18:40.993Z,80.90
2018-09-24T00:21:10.157Z,80.50
2018-09-24T00:23:39.383Z,81.00
2018-09-24T00:26:08.538Z,81.30
2018-09-24T00:28:37.716Z,80.40
2018-09-24T00:31:06.919Z,79.20
2018-09-24T00:33:36.077Z,79.60
2018-09-24T00:36:05.315Z,78.80
2018-09-24T00:38:34.467Z,78.00
2018-09-24T00:41:03.625Z,78.50
2018-09-24T00:43:32.837Z,78.40
2018-09-24T00:46:02.008Z,79.40
2018-09-24T00:48:31.153Z,79.20
2018-09-24T00:51:00.317Z,79.20
2018-09-24T00:53:29.485Z,79.20
2018-09-24T00:55:58.699Z,79.10
2018-09-24T00:58:27.872Z,79.60
2018-09-24T01:00:57.094Z,80.20
2018-09-24T01:03:26.255Z,80.30
2018-09-24T01:05:55.431Z,80.80
2018-09-24T01:08:24.598Z,81.50
2018-09-24T01:10:53.753Z,81.60
2018-09-24T01:13:23.040Z,81.80
2018-09-24T01:15:52.212Z,81.80
2018-09-24T01:18:21.360Z,81.00
2018-09-24T01:20:50.533Z,81.40
2018-09-24T01:23:19.715Z,81.60
2018-09-24T01:25:48.893Z,81.60
2018-09-24T01:28:18.047Z,81.70
2018-09-24T01:30:47.189Z,81.80
2018-09-24T01:33:16.356Z,81.50
2018-09-24T01:35:45.553Z,81.20
2018-09-24T01:38:14.714Z,81.50
2018-09-24T01:40:43.953Z,81.20
2018-09-24T01:43:13.126Z,82.10
2018-09-24T01:45:42.297Z,80.60
2018-09-24T01:48:11.661Z,80.70
2018-09-24T01:50:40.826Z,80.80
2018-09-24T01:53:10.057Z,79.90
2018-09-24T01:55:39.265Z,79.20
2018-09-24T01:58:11.372Z,79.90
2018-09-24T02:00:40.530Z,77.80
2018-09-24T02:03:09.720Z,76.90
2018-09-24T02:05:38.857Z,78.90
2018-09-24T02:08:08.076Z,79.60
2018-09-24T02:10:37.253Z,77.80
2018-09-24T02:13:06.681Z,76.90
2018-09-24T02:15:35.847Z,76.30
2018-09-24T02:18:05.105Z,77.10
2018-09-24T02:20:34.757Z,78.00
2018-09-24T02:23:03.917Z,77.20
2018-09-24T02:25:33.339Z,77.50
2018-09-24T02:28:02.510Z,77.70
2018-09-24T02:30:31.690Z,78.00
2018-09-24T02:33:01.672Z,77.20
2018-09-24T02:35:30.853Z,76.90
2018-09-24T02:38:00.013Z,77.00
2018-09-24T02:40:29.201Z,77.20
2018-09-24T02:42:58.415Z,77.70
2018-09-24T02:45:27.564Z,76.70
2018-09-24T02:47:56.750Z,76.10
2018-09-24T02:50:36.116Z,76.20
2018-09-24T02:53:05.839Z,75.40
2018-09-24T02:55:34.987Z,74.90
2018-09-24T02:58:04.138Z,75.10
2018-09-24T03:00:33.319Z,74.60
2018-09-24T03:03:09.126Z,74.60
2018-09-24T03:05:38.329Z,74.70
2018-09-24T03:08:11.083Z,74.50
2018-09-24T03:10:40.539Z,74.60
2018-09-24T03:13:09.812Z,75.20
2018-09-24T03:15:41.077Z,75.30
2018-09-24T03:18:10.877Z,74.80
2018-09-24T03:20:41.333Z,73.80
2018-09-24T03:23:10.768Z,74.40
2018-09-24T03:25:40.405Z,75.00
2018-09-24T03:28:09.574Z,75.20
2018-09-24T03:30:40.743Z,75.70
2018-09-24T03:33:10.044Z,74.60
2018-09-24T03:35:39.241Z,74.90
2018-09-24T03:38:08.499Z,74.20
2018-09-24T03:40:37.650Z,73.90
2018-09-24T03:43:06.852Z,74.30
2018-09-24T03:45:36.005Z,74.40
2018-09-24T03:48:05.380Z,74.80
2018-09-24T03:50:34.517Z,74.70
2018-09-24T03:53:03.661Z,75.40
2018-09-24T03:55:32.829Z,76.10
2018-09-24T03:58:01.981Z,75.10
2018-09-24T04:00:31.184Z,74.00
2018-09-24T04:03:00.329Z,73.60
2018-09-24T04:05:34.953Z,74.40
2018-09-24T04:08:09.323Z,73.40
2018-09-24T04:10:43.763Z,73.00
2018-09-24T04:13:18.197Z,73.00
2018-09-24T04:15:52.705Z,73.20
2018-09-24T04:18:27.087Z,72.30
2018-09-24T04:21:01.626Z,72.20
2018-09-24T04:23:36.251Z,73.00
2018-09-24T04:26:10.820Z,72.80
2018-09-24T04:28:45.224Z,73.30
2018-09-24T04:31:19.683Z,75.60
2018-09-24T04:33:54.233Z,74.40
2018-09-24T04:36:28.753Z,73.60
2018-09-24T04:39:03.550Z,72.20
2018-09-24T04:41:38.548Z,72.60
2018-09-24T04:44:13.549Z,72.70
2018-09-24T04:46:48.349Z,72.70
2018-09-24T04:49:22.939Z,72.70
2018-09-24T04:51:57.651Z,73.00
2018-09-24T04:54:32.330Z,72.80
2018-09-24T04:57:07.276Z,73.60
2018-09-24T04:59:42.271Z,74.00
2018-09-24T05:02:16.895Z,74.00
2018-09-24T05:04:51.383Z,74.70
2018-09-24T05:07:26.113Z,74.40
2018-09-24T05:10:00.975Z,73.50
2018-09-24T05:12:36.336Z,72.80
2018-09-24T05:15:13.393Z,72.30
2018-09-24T05:17:48.157Z,71.90
2018-09-24T05:20:22.749Z,72.20
2018-09-24T05:22:57.490Z,72.30
2018-09-24T05:25:32.357Z,72.90
2018-09-24T05:28:07.625Z,73.60
2018-09-24T05:30:42.541Z,72.60
2018-09-24T05:33:17.233Z,73.10
2018-09-24T05:35:51.828Z,73.20
2018-09-24T05:38:26.221Z,73.20
2018-09-24T05:41:01.223Z,72.70
2018-09-24T05:43:36.958Z,73.10
2018-09-24T05:46:12.414Z,73.60
2018-09-24T05:48:46.830Z,74.20
2018-09-24T05:51:21.635Z,72.90
2018-09-24T05:53:56.316Z,72.30
2018-09-24T05:56:31.185Z,71.50
2018-09-24T05:59:06.571Z,73.30
2018-09-24T06:01:41.702Z,73.30
2018-09-24T06:04:16.292Z,72.20
2018-09-24T06:06:51.015Z,72.30
2018-09-24T06:09:25.600Z,71.40
2018-09-24T06:12:00.525Z,70.50
2018-09-24T06:14:36.010Z,71.60
2018-09-24T06:17:10.985Z,71.70
2018-09-24T06:19:45.694Z,70.60
2018-09-24T06:22:20.490Z,71.50
2018-09-24T06:24:55.177Z,70.80
2018-09-24T06:27:30.223Z,71.00
2018-09-24T06:30:05.607Z,71.50
2018-09-24T06:32:40.726Z,71.00
2018-09-24T06:35:15.285Z,70.90
2018-09-24T06:37:49.872Z,70.20
2018-09-24T06:40:24.678Z,70.20
2018-09-24T06:42:59.875Z,70.30
2018-09-24T06:45:35.420Z,69.50
2018-09-24T06:48:10.515Z,70.40
2018-09-24T06:50:45.330Z,70.60
2018-09-24T06:53:20.124Z,71.80
2018-09-24T06:55:54.878Z,70.60
2018-09-24T06:58:30.858Z,70.00
2018-09-24T07:01:06.708Z,70.60
2018-09-24T07:03:42.110Z,71.00
2018-09-24T07:06:16.658Z,70.00
2018-09-24T07:08:51.388Z,69.80
2018-09-24T07:11:26.079Z,70.10
2018-09-24T07:14:01.085Z,69.80
2018-09-24T07:16:36.198Z,68.30
2018-09-24T07:19:12.097Z,67.20
2018-09-24T07:21:46.931Z,67.40
2018-09-24T07:24:21.514Z,66.40
2018-09-24T07:26:56.159Z,66.90
2018-09-24T07:29:31.297Z,64.50
2018-09-24T07:32:07.613Z,64.60
2018-09-24T07:34:42.756Z,65.10
2018-09-24T07:37:17.694Z,64.30
2018-09-24T07:39:52.308Z,64.60
2018-09-24T07:42:26.838Z,63.40
2018-09-24T07:45:02.746Z,65.10
2018-09-24T07:47:38.121Z,65.50
2018-09-24T07:50:13.107Z,65.20
2018-09-24T07:52:47.549Z,65.00
2018-09-24T07:55:22.117Z,65.80
2018-09-24T07:57:56.823Z,65.40
2018-09-24T08:00:33.060Z,64.40
2018-09-24T08:03:08.688Z,63.50
2018-09-24T08:05:43.777Z,62.80
2018-09-24T08:08:18.468Z,62.80
2018-09-24T08:10:53.273Z,61.00
2018-09-24T08:13:28.089Z,60.70
2018-09-24T08:16:02.865Z,60.30
2018-09-24T08:18:37.954Z,60.50
2018-09-24T08:21:12.873Z,61.40
2018-09-24T08:23:47.486Z,62.40
2018-09-24T08:26:22.231Z,61.40
2018-09-24T08:28:57.080Z,63.10
2018-09-24T08:31:32.144Z,63.40
2018-09-24T08:34:08.099Z,63.40
2018-09-24T08:36:43.018Z,61.40
2018-09-24T08:39:18.208Z,59.50
2018-09-24T08:41:52.801Z,60.00
2018-09-24T08:44:27.667Z,57.60
2018-09-24T08:47:03.842Z,56.30
2018-09-24T08:49:39.670Z,55.10
2018-09-24T08:52:14.798Z,55.50
2018-09-24T08:54:49.423Z,53.80
2018-09-24T08:57:24.453Z,53.20
2018-09-24T08:59:59.595Z,52.60
2018-09-24T09:02:34.468Z,52.20
2018-09-24T09:05:10.357Z,49.80
2018-09-24T09:07:45.142Z,49.50
2018-09-24T09:10:19.835Z,49.80
2018-09-24T09:12:54.364Z,51.40
2018-09-24T09:15:29.614Z,51.00
2018-09-24T09:18:04.891Z,51.70
2018-09-24T09:20:40.123Z,53.50
2018-09-24T09:23:15.442Z,55.70
2018-09-24T09:25:50.186Z,53.10
2018-09-24T09:28:24.779Z,53.10
2018-09-24T09:30:59.716Z,53.60
2018-09-24T09:33:34.615Z,54.10
2018-09-24T09:36:10.255Z,54.20
2018-09-24T09:38:45.335Z,54.90
2018-09-24T09:41:19.910Z,56.60
2018-09-24T09:43:54.515Z,57.00
2018-09-24T09:46:29.172Z,59.10
2018-09-24T09:49:04.122Z,56.70
2018-09-24T09:51:40.450Z,54.50
2018-09-24T09:54:15.334Z,54.40
2018-09-24T09:56:50.325Z,52.90
2018-09-24T09:59:25.079Z,52.40
2018-09-24T10:02:00.086Z,50.50
2018-09-24T10:04:34.965Z,51.70
2018-09-24T10:07:10.253Z,52.80
2018-09-24T10:09:45.393Z,50.90
2018-09-24T10:12:20.083Z,49.80
2018-09-24T10:14:54.779Z,47.50
2018-09-24T10:17:29.373Z,48.20
2018-09-24T10:20:04.318Z,49.50
2018-09-24T10:22:40.040Z,46.10
2018-09-24T10:25:14.813Z,44.90
2018-09-24T10:27:49.566Z,49.00
2018-09-24T10:30:24.145Z,45.10
2018-09-24T10:32:59.035Z,45.90
2018-09-24T10:35:33.715Z,45.10
2018-09-24T10:38:10.106Z,45.00
2018-09-24T10:40:45.302Z,46.80
2018-09-24T10:43:20.032Z,46.60
2018-09-24T10:45:54.674Z,48.00
2018-09-24T10:48:29.614Z,49.10
2018-09-24T10:51:04.709Z,50.30
2018-09-24T10:53:40.144Z,50.00
2018-09-24T10:56:15.256Z,52.80
2018-09-24T10:58:49.904Z,51.60
2018-09-24T11:01:24.380Z,50.40
2018-09-24T11:03:59.209Z,50.00
2018-09-24T11:06:34.003Z,48.00
2018-09-24T11:09:10.912Z,48.10
2018-09-24T11:11:46.447Z,48.70
2018-09-24T11:14:21.006Z,49.70
2018-09-24T11:16:55.799Z,49.30
2018-09-24T11:19:31.707Z,50.10
2018-09-24T11:22:08.429Z,48.40
2018-09-24T11:24:43.629Z,48.50
2018-09-24T11:27:18.188Z,47.40
2018-09-24T11:29:52.950Z,46.10
2018-09-24T11:32:27.460Z,47.30
2018-09-24T11:35:02.525Z,45.00
2018-09-24T11:37:38.121Z,44.50
2018-09-24T11:40:13.269Z,47.50
2018-09-24T11:42:47.970Z,46.70
2018-09-24T11:45:22.510Z,45.10
2018-09-24T11:47:56.995Z,46.00
2018-09-24T11:50:31.669Z,46.00
2018-09-24T11:53:07.192Z,46.80
2018-09-24T11:55:42.040Z,45.90
2018-09-24T11:58:17.320Z,46.50
2018-09-24T12:00:52.017Z,46.40
2018-09-24T12:03:26.736Z,45.00
2018-09-24T12:06:01.531Z,46.80
2018-09-24T12:08:36.933Z,43.70
2018-09-24T12:11:12.220Z,44.90
2018-09-24T12:13:47.290Z,44.20
2018-09-24T12:16:21.941Z,42.60
2018-09-24T12:18:56.472Z,40.90
2018-09-24T12:21:31.190Z,40.70
2018-09-24T12:24:06.508Z,42.80
2018-09-24T12:26:41.710Z,42.20
2018-09-24T12:29:16.400Z,44.50
2018-09-24T12:31:50.902Z,45.30
2018-09-24T12:34:25.588Z,43.70
2018-09-24T12:37:00.877Z,44.70
2018-09-24T12:39:37.082Z,47.70
2018-09-24T12:42:12.213Z,47.90
2018-09-24T12:44:47.244Z,46.20
2018-09-24T12:47:21.892Z,47.70
2018-09-24T12:49:56.500Z,47.50
2018-09-24T12:52:31.414Z,46.90
2018-09-24T12:55:07.320Z,46.80
2018-09-24T12:57:42.322Z,45.80
2018-09-24T13:00:17.348Z,42.70
2018-09-24T13:02:51.970Z,42.10
2018-09-24T13:05:26.637Z,43.80
2018-09-24T13:08:01.448Z,40.60
2018-09-24T13:10:37.722Z,42.60
2018-09-24T13:13:12.889Z,47.10
2018-09-24T13:15:47.835Z,42.60
2018-09-24T13:18:22.365Z,44.60
2018-09-24T13:20:56.901Z,43.00
2018-09-24T13:23:31.449Z,41.90
2018-09-24T13:26:06.885Z,40.20
2018-09-24T13:28:42.229Z,41.50
2018-09-24T13:31:17.273Z,44.10
2018-09-24T13:33:52.014Z,42.30
2018-09-24T13:36:26.838Z,42.00
2018-09-24T13:39:01.708Z,41.20
2018-09-24T13:41:36.984Z,41.90
2018-09-24T13:44:12.221Z,43.90
2018-09-24T13:46:46.895Z,44.20
2018-09-24T13:49:21.580Z,42.90
2018-09-24T13:51:56.196Z,44.90
2018-09-24T13:54:31.060Z,45.60
2018-09-24T13:57:06.613Z,46.70
2018-09-24T13:59:41.621Z,46.30
2018-09-24T14:02:16.494Z,46.90
2018-09-24T14:04:51.371Z,46.40
2018-09-24T14:07:25.929Z,46.20
2018-09-24T14:10:00.804Z,46.80
2018-09-24T14:12:35.936Z,44.80
2018-09-24T14:15:11.070Z,45.70
2018-09-24T14:17:46.224Z,44.30
2018-09-24T14:20:20.848Z,44.60
2018-09-24T14:22:55.437Z,45.00
2018-09-24T14:25:30.157Z,46.10
2018-09-24T14:28:05.453Z,45.00
2018-09-24T14:30:40.811Z,45.90
2018-09-24T14:33:16.040Z,45.10
2018-09-24T14:35:50.677Z,42.90
2018-09-24T14:38:25.105Z,44.20
2018-09-24T14:41:00.147Z,42.70
2018-09-24T14:43:35.574Z,41.60
2018-09-24T14:46:10.492Z,41.00
2018-09-24T14:48:45.806Z,40.70
2018-09-24T14:51:20.434Z,41.90
2018-09-24T14:53:55.094Z,43.20
2018-09-24T14:56:30.373Z,41.70
2018-09-24T14:59:05.785Z,41.40
2018-09-24T15:01:41.202Z,41.20
2018-09-24T15:04:15.740Z,40.40
2018-09-24T15:06:50.486Z,40.90
2018-09-24T15:09:25.106Z,42.90
2018-09-24T15:11:59.716Z,43.90
2018-09-24T15:14:34.564Z,43.10
2018-09-24T15:17:10.082Z,43.10
2018-09-24T15:19:45.159Z,43.80
2018-09-24T15:22:19.682Z,44.30
2018-09-24T15:24:54.296Z,45.70
2018-09-24T15:27:29.191Z,44.60
2018-09-24T15:30:04.105Z,45.40
2018-09-24T15:32:40.064Z,45.10
2018-09-24T15:35:15.173Z,44.40
2018-09-24T15:37:49.710Z,44.80
2018-09-24T15:40:24.300Z,45.30
2018-09-24T15:42:59.357Z,45.40
2018-09-24T15:45:34.333Z,46.00
2018-09-24T15:48:10.385Z,46.30
2018-09-24T15:50:45.366Z,47.40
2018-09-24T15:53:20.648Z,45.20
2018-09-24T15:55:55.177Z,45.40
2018-09-24T15:58:30.271Z,44.60
2018-09-24T16:01:05.000Z,45.40
2018-09-24T16:03:40.335Z,45.10
2018-09-24T16:06:15.061Z,44.00
2018-09-24T16:08:49.627Z,43.40
2018-09-24T16:11:24.318Z,43.70
2018-09-24T16:13:59.188Z,45.20
2018-09-24T16:16:34.578Z,45.00
2018-09-24T16:19:09.952Z,45.40
2018-09-24T16:21:44.993Z,45.70
2018-09-24T16:24:19.626Z,45.80
2018-09-24T16:26:54.217Z,46.20
2018-09-24T16:29:28.900Z,46.70
2018-09-24T16:32:03.483Z,46.50
2018-09-24T16:34:38.904Z,46.80
2018-09-24T16:37:13.902Z,47.50
2018-09-24T16:39:48.443Z,47.50
2018-09-24T16:42:23.032Z,48.00
2018-09-24T16:44:57.625Z,48.20
2018-09-24T16:47:32.602Z,49.30
2018-09-24T16:50:08.210Z,49.50
2018-09-24T16:52:43.331Z,49.40
2018-09-24T16:55:17.901Z,50.00
2018-09-24T16:57:52.660Z,50.40
2018-09-24T17:00:27.380Z,50.40
2018-09-24T17:03:02.246Z,49.10
2018-09-24T17:05:37.463Z,48.90
2018-09-24T17:08:12.243Z,49.20
2018-09-24T17:10:46.763Z,49.00
2018-09-24T17:13:21.696Z,48.30
2018-09-24T17:15:56.606Z,48.40
2018-09-24T17:18:31.834Z,49.50
2018-09-24T17:21:06.794Z,49.70
2018-09-24T17:23:42.020Z,50.00
2018-09-24T17:26:17.402Z,51.00
2018-09-24T17:28:52.152Z,52.50
2018-09-24T17:31:27.081Z,52.80
2018-09-24T17:34:02.569Z,52.30
2018-09-24T17:36:37.236Z,53.40
2018-09-24T17:39:14.673Z,52.90
2018-09-24T17:41:49.766Z,53.80
2018-09-24T17:44:24.698Z,53.50
2018-09-24T17:47:00.137Z,53.70
2018-09-24T17:49:36.368Z,53.50
2018-09-24T17:52:11.181Z,53.90
2018-09-24T17:54:45.932Z,54.00
2018-09-24T17:57:20.529Z,54.30
2018-09-24T17:59:55.251Z,54.00
2018-09-24T18:02:30.826Z,54.50
2018-09-24T18:05:05.593Z,54.40
2018-09-24T18:07:40.916Z,56.20
2018-09-24T18:10:15.703Z,55.20
2018-09-24T18:12:50.653Z,55.70
2018-09-24T18:15:25.587Z,56.90
2018-09-24T18:18:00.735Z,56.50
2018-09-24T18:20:35.471Z,58.10
2018-09-24T18:23:10.194Z,58.40
2018-09-24T18:25:44.833Z,57.80
2018-09-24T18:28:19.338Z,56.90
2018-09-24T18:30:54.244Z,57.40
2018-09-24T18:33:29.182Z,57.80
2018-09-24T18:36:03.996Z,59.30
2018-09-24T18:38:38.582Z,57.70
2018-09-24T18:41:13.407Z,58.80
2018-09-24T18:43:48.261Z,59.10
2018-09-24T18:46:23.110Z,59.00
2018-09-24T18:48:57.774Z,59.80
2018-09-24T18:51:32.409Z,58.70
2018-09-24T18:54:06.969Z,59.30
2018-09-24T18:56:41.652Z,58.90
2018-09-24T18:59:16.390Z,59.70
2018-09-24T19:01:50.904Z,58.10
2018-09-24T19:04:25.450Z,59.30
2018-09-24T19:07:00.286Z,59.10
2018-09-24T19:09:35.031Z,59.20
2018-09-24T19:12:09.582Z,58.00
2018-09-24T19:14:44.182Z,58.30
2018-09-24T19:17:18.962Z,58.20
2018-09-24T19:19:53.668Z,56.80
2018-09-24T19:22:28.881Z,56.40
2018-09-24T19:25:03.919Z,56.80
2018-09-24T19:27:38.563Z,56.20
2018-09-24T19:30:13.210Z,57.60
2018-09-24T19:32:47.710Z,58.50
2018-09-24T19:35:22.539Z,57.30
2018-09-24T19:37:56.989Z,57.50
2018-09-24T19:40:31.530Z,57.30
2018-09-24T19:43:06.215Z,56.50
2018-09-24T19:45:40.656Z,56.60
2018-09-24T19:48:15.575Z,56.00
2018-09-24T19:50:50.267Z,56.00
2018-09-24T19:53:24.839Z,56.20
2018-09-24T19:55:59.584Z,56.40
2018-09-24T19:58:34.163Z,56.50
2018-09-24T20:01:08.942Z,56.80
2018-09-24T20:03:43.600Z,56.90
2018-09-24T20:06:18.268Z,57.10
2018-09-24T20:08:52.916Z,57.40
2018-09-24T20:11:27.498Z,57.50
2018-09-24T20:14:02.149Z,57.60
2018-09-24T20:16:37.079Z,58.50
2018-09-24T20:19:14.028Z,58.90
2018-09-24T20:21:48.814Z,58.80
2018-09-24T20:24:23.422Z,58.80
2018-09-24T20:26:58.015Z,59.00
2018-09-24T20:29:32.756Z,58.90
2018-09-24T20:32:07.837Z,60.20
2018-09-24T20:34:43.939Z,59.90
2018-09-24T20:37:18.900Z,60.90
2018-09-24T20:39:53.398Z,59.70
2018-09-24T20:42:27.940Z,61.20
2018-09-24T20:45:02.486Z,61.40
2018-09-24T20:47:37.257Z,61.70
2018-09-24T20:50:19.191Z,61.40
2018-09-24T20:52:54.082Z,62.10
2018-09-24T20:55:28.633Z,62.10
2018-09-24T20:58:03.384Z,61.20
2018-09-24T21:00:38.225Z,61.00
2018-09-24T21:03:14.295Z,61.10
2018-09-24T21:05:48.894Z,60.90
2018-09-24T21:08:23.550Z,59.60
2018-09-24T21:10:58.158Z,60.40
2018-09-24T21:13:32.808Z,59.90
2018-09-24T21:16:07.727Z,59.70
2018-09-24T21:18:43.011Z,61.20
2018-09-24T21:21:18.277Z,60.90
2018-09-24T21:23:53.125Z,62.30
2018-09-24T21:26:27.754Z,62.80
2018-09-24T21:29:02.348Z,62.80
2018-09-24T21:31:37.001Z,61.10
2018-09-24T21:34:12.150Z,60.90
2018-09-24T21:36:47.310Z,61.50
2018-09-24T21:39:22.228Z,61.50
2018-09-24T21:41:56.991Z,61.90
2018-09-24T21:44:31.682Z,62.20
2018-09-24T21:47:06.611Z,62.10
2018-09-24T21:49:41.378Z,61.20
2018-09-24T21:52:16.300Z,62.50
2018-09-24T21:54:51.623Z,60.70
2018-09-24T21:57:26.409Z,61.20
2018-09-24T22:00:01.017Z,61.60
2018-09-24T22:02:36.923Z,61.50
2018-09-24T22:05:11.828Z,61.10
2018-09-24T22:07:46.679Z,62.00
2018-09-24T22:10:21.637Z,62.30
2018-09-24T22:12:56.311Z,61.60
2018-09-24T22:15:31.088Z,61.80
2018-09-24T22:18:06.074Z,62.30
2018-09-24T22:20:40.805Z,60.90
2018-09-24T22:23:15.867Z,61.20
2018-09-24T22:25:50.601Z,61.20
2018-09-24T22:28:25.022Z,61.60
2018-09-24T22:30:59.534Z,61.90
2018-09-24T22:33:34.117Z,62.00
2018-09-24T22:36:08.977Z,62.50
2018-09-24T22:38:44.366Z,62.50
2018-09-24T22:41:19.364Z,62.40
2018-09-24T22:43:53.965Z,63.20
2018-09-24T22:46:28.760Z,62.80
2018-09-24T22:49:03.346Z,63.50
2018-09-24T22:51:38.038Z,62.40
2018-09-24T22:54:12.794Z,62.40
2018-09-24T22:56:47.818Z,62.30
2018-09-24T22:59:22.570Z,62.50
2018-09-24T23:01:57.155Z,62.50
2018-09-24T23:04:31.830Z,63.20
2018-09-24T23:07:06.962Z,63.50
2018-09-24T23:09:41.755Z,63.40
2018-09-24T23:12:16.680Z,63.80
2018-09-24T23:14:51.456Z,63.70
2018-09-24T23:17:25.982Z,63.80
2018-09-24T23:20:00.592Z,64.10
2018-09-24T23:22:35.389Z,63.90
2018-09-24T23:25:10.108Z,64.40
2018-09-24T23:27:45.429Z,64.40
2018-09-24T23:30:20.087Z,65.60
2018-09-24T23:32:54.681Z,65.70
2018-09-24T23:35:29.231Z,65.80
2018-09-24T23:38:03.799Z,65.90
2018-09-24T23:40:38.430Z,66.30
2018-09-24T23:43:13.651Z,66.40
2018-09-24T23:45:48.474Z,66.40
2018-09-24T23:48:23.110Z,66.20
2018-09-24T23:50:57.716Z,66.60
2018-09-24T23:53:32.562Z,67.60
2018-09-24T23:56:10.391Z,67.00
2018-09-24T23:58:45.602Z,66.50
